Floyd, Iowa
Current Conditions -  °F | °C
As of 10:15 AM on Friday 21 Nov 2014 (Local Time) from KCCY Reporting Station
Clear Clear  
Wind Chill:   Ceiling: Unl
Heat Index: 19°   Visibility: 10mi
Dew Point:   Wind: 13mph
Humidity: 63%   Direction: 170°S
Pressure: 30.28"   Gusts: 20mph
Location:  43.13°N, 92.74°W
Report Text: KCCY 211615Z AUTO 17011G17KT 10SM CLR M07/M13 A3028 RMK AO2
Loading
Personal Weather Stations






























Interactive Weather Map New forecast layout! Learn more

10-Day Weather Forecast

Advertisements
Track Severe Weather on mobile